createdAt,value
2018-10-05T00:01:23.569Z,5.40
2018-10-05T00:03:53.950Z,5.03
2018-10-05T00:06:24.331Z,5.27
2018-10-05T00:08:54.761Z,4.90
2018-10-05T00:11:25.361Z,5.50
2018-10-05T00:13:56.453Z,5.50
2018-10-05T00:16:26.928Z,5.50
2018-10-05T00:18:57.348Z,5.00
2018-10-05T00:21:27.760Z,5.10
2018-10-05T00:23:58.084Z,5.87
2018-10-05T00:26:28.551Z,5.43
2018-10-05T00:28:58.861Z,5.57
2018-10-05T00:31:29.984Z,6.23
2018-10-05T00:34:00.500Z,5.93
2018-10-05T00:36:31.108Z,6.00
2018-10-05T00:39:01.720Z,5.70
2018-10-05T00:41:32.056Z,5.70
2018-10-05T00:44:02.356Z,5.40
2018-10-05T00:46:32.914Z,5.70
2018-10-05T00:49:03.348Z,5.60
2018-10-05T00:51:33.603Z,6.10
2018-10-05T00:54:04.088Z,6.00
2018-10-05T00:56:34.552Z,6.30
2018-10-05T00:59:05.053Z,8.27
2018-10-05T01:01:35.551Z,5.27
2018-10-05T01:04:05.815Z,5.67
2018-10-05T01:06:36.256Z,6.40
2018-10-05T01:09:07.559Z,5.70
2018-10-05T01:11:38.197Z,5.60
2018-10-05T01:14:08.556Z,6.03
2018-10-05T01:16:39.063Z,6.43
2018-10-05T01:19:09.660Z,5.70
2018-10-05T01:21:39.888Z,6.57
2018-10-05T01:24:10.192Z,5.60
2018-10-05T01:26:40.756Z,6.10
2018-10-05T01:29:11.115Z,6.20
2018-10-05T01:31:41.529Z,6.27
2018-10-05T01:34:11.946Z,5.60
2018-10-05T01:36:42.347Z,5.40
2018-10-05T01:39:12.639Z,5.37
2018-10-05T01:41:43.036Z,6.17
2018-10-05T01:44:13.396Z,6.00
2018-10-05T01:46:43.756Z,6.23
2018-10-05T01:49:14.172Z,6.13
2018-10-05T01:51:44.658Z,5.50
2018-10-05T01:54:15.546Z,5.53
2018-10-05T01:56:46.008Z,5.90
2018-10-05T01:59:16.464Z,5.53
2018-10-05T02:01:47.837Z,5.57
2018-10-05T02:04:18.212Z,5.80
2018-10-05T02:06:48.641Z,5.77
2018-10-05T02:09:18.943Z,5.57
2018-10-05T02:11:49.400Z,6.60
2018-10-05T02:14:19.693Z,6.00
2018-10-05T02:16:50.155Z,5.50
2018-10-05T02:19:20.776Z,6.87
2018-10-05T02:21:51.146Z,5.83
2018-10-05T02:24:21.506Z,6.30
2018-10-05T02:26:51.914Z,5.90
2018-10-05T02:29:22.208Z,6.37
2018-10-05T02:31:52.567Z,5.37
2018-10-05T02:34:22.924Z,6.80
2018-10-05T02:36:53.401Z,5.07
2018-10-05T02:39:23.710Z,5.60
2018-10-05T02:41:54.089Z,6.57
2018-10-05T02:44:24.352Z,6.27
2018-10-05T02:46:54.712Z,5.43
2018-10-05T02:49:25.348Z,6.40
2018-10-05T02:51:55.995Z,5.90
2018-10-05T02:54:26.281Z,6.27
2018-10-05T02:56:56.624Z,6.00
2018-10-05T02:59:26.932Z,6.77
2018-10-05T03:02:14.369Z,6.30
2018-10-05T03:04:44.680Z,6.50
2018-10-05T03:07:15.053Z,6.17
2018-10-05T03:09:45.318Z,6.20
2018-10-05T03:12:16.396Z,5.70
2018-10-05T03:14:48.780Z,6.33
2018-10-05T03:17:19.332Z,6.07
2018-10-05T03:19:49.656Z,6.03
2018-10-05T03:22:19.880Z,6.00
2018-10-05T03:24:50.243Z,6.63
2018-10-05T03:27:20.859Z,6.10
2018-10-05T03:29:51.254Z,6.60
2018-10-05T03:32:21.585Z,6.40
2018-10-05T03:34:52.012Z,5.60
2018-10-05T03:37:22.445Z,6.50
2018-10-05T03:39:52.772Z,5.50
2018-10-05T03:42:23.072Z,6.53
2018-10-05T03:44:53.403Z,7.00
2018-10-05T03:47:23.816Z,7.23
2018-10-05T03:49:54.314Z,6.37
2018-10-05T03:52:24.668Z,7.10
2018-10-05T03:54:55.025Z,7.10
2018-10-05T03:57:25.415Z,6.97
2018-10-05T03:59:55.699Z,6.33
2018-10-05T04:02:26.753Z,6.60
2018-10-05T04:04:57.090Z,7.10
2018-10-05T04:07:27.345Z,6.77
2018-10-05T04:09:57.707Z,6.37
2018-10-05T04:12:28.367Z,6.60
2018-10-05T04:14:58.880Z,6.57
2018-10-05T04:17:29.277Z,6.10
2018-10-05T04:19:59.659Z,6.90
2018-10-05T04:22:31.136Z,6.70
2018-10-05T04:25:01.669Z,6.33
2018-10-05T04:27:32.249Z,6.07
2018-10-05T04:30:02.758Z,6.50
2018-10-05T04:32:33.073Z,6.37
2018-10-05T04:35:03.480Z,6.40
2018-10-05T04:37:33.944Z,6.93
2018-10-05T04:40:04.349Z,6.97
2018-10-05T04:42:34.704Z,6.30
2018-10-05T04:45:05.320Z,6.43
2018-10-05T04:47:35.742Z,6.90
2018-10-05T04:50:06.111Z,6.47
2018-10-05T04:52:36.493Z,6.23
2018-10-05T04:55:06.991Z,6.50
2018-10-05T04:57:37.543Z,5.80
2018-10-05T05:00:08.232Z,6.27
2018-10-05T05:02:38.634Z,6.63
2018-10-05T05:05:09.011Z,5.47
2018-10-05T05:07:39.444Z,7.13
2018-10-05T05:10:10.656Z,7.43
2018-10-05T05:12:40.963Z,6.27
2018-10-05T05:15:11.539Z,5.60
2018-10-05T05:17:42.038Z,6.50
2018-10-05T05:20:12.996Z,7.63
2018-10-05T05:22:43.370Z,6.20
2018-10-05T05:25:13.771Z,6.63
2018-10-05T05:27:44.356Z,6.87
2018-10-05T05:30:14.752Z,6.00
2018-10-05T05:32:45.083Z,6.63
2018-10-05T05:35:15.280Z,6.27
2018-10-05T05:37:45.580Z,6.70
2018-10-05T05:40:16.081Z,6.50
2018-10-05T05:42:46.536Z,6.23
2018-10-05T05:45:16.891Z,6.37
2018-10-05T05:47:47.412Z,7.03
2018-10-05T05:50:17.946Z,6.30
2018-10-05T05:52:48.283Z,6.60
2018-10-05T05:55:18.721Z,5.40
2018-10-05T05:57:49.012Z,5.83
2018-10-05T06:00:19.471Z,5.13
2018-10-05T06:02:49.879Z,5.33
2018-10-05T06:05:20.844Z,5.67
2018-10-05T06:07:51.251Z,4.93
2018-10-05T06:10:21.816Z,5.47
2018-10-05T06:12:52.151Z,5.20
2018-10-05T06:15:22.573Z,5.00
2018-10-05T06:17:53.033Z,5.40
2018-10-05T06:20:23.439Z,4.90
2018-10-05T06:22:53.744Z,5.10
2018-10-05T06:25:24.096Z,4.63
2018-10-05T06:27:54.374Z,4.40
2018-10-05T06:30:25.798Z,4.13
2018-10-05T06:32:56.103Z,4.10
2018-10-05T06:35:26.508Z,4.40
2018-10-05T06:37:57.067Z,3.90
2018-10-05T06:40:27.512Z,4.00
2018-10-05T06:42:57.876Z,4.10
2018-10-05T06:45:28.372Z,4.40
2018-10-05T06:47:58.829Z,4.10
2018-10-05T06:50:29.247Z,3.83
2018-10-05T06:52:59.536Z,4.43
2018-10-05T06:55:29.991Z,3.77
2018-10-05T06:58:00.294Z,4.27
2018-10-05T07:00:30.848Z,4.43
2018-10-05T07:03:01.345Z,4.40
2018-10-05T07:05:31.910Z,4.60
2018-10-05T07:08:02.471Z,4.20
2018-10-05T07:10:33.247Z,3.67
2018-10-05T07:13:03.807Z,3.70
2018-10-05T07:15:34.032Z,4.87
2018-10-05T07:18:04.312Z,4.10
2018-10-05T07:20:34.820Z,4.63
2018-10-05T07:23:05.427Z,3.83
2018-10-05T07:25:35.799Z,4.00
2018-10-05T07:28:06.300Z,4.07
2018-10-05T07:30:36.717Z,4.53
2018-10-05T07:33:07.208Z,3.63
2018-10-05T07:35:37.611Z,3.60
2018-10-05T07:38:08.208Z,3.67
2018-10-05T07:40:38.439Z,3.57
2018-10-05T07:43:08.981Z,3.83
2018-10-05T07:45:39.886Z,3.30
2018-10-05T07:48:10.418Z,3.90
2018-10-05T07:50:41.004Z,3.33
2018-10-05T07:53:11.296Z,3.50
2018-10-05T07:55:41.648Z,2.97
2018-10-05T07:58:12.046Z,3.00
2018-10-05T08:00:42.571Z,2.70
2018-10-05T08:03:12.924Z,2.70
2018-10-05T08:05:43.214Z,2.40
2018-10-05T08:08:13.655Z,2.93
2018-10-05T08:10:44.056Z,2.63
2018-10-05T08:13:14.536Z,2.73
2018-10-05T08:15:45.014Z,3.10
2018-10-05T08:18:15.284Z,2.40
2018-10-05T08:20:45.747Z,2.27
2018-10-05T08:23:16.064Z,2.60
2018-10-05T08:25:46.560Z,2.80
2018-10-05T08:28:17.109Z,3.03
2018-10-05T08:30:47.441Z,2.30
2018-10-05T08:33:17.842Z,2.10
2018-10-05T08:35:48.396Z,2.07
2018-10-05T08:38:18.735Z,3.30
2018-10-05T08:40:49.359Z,2.67
2018-10-05T08:43:19.797Z,2.90
2018-10-05T08:45:50.260Z,2.67
2018-10-05T08:48:20.767Z,2.90
2018-10-05T08:50:51.217Z,3.10
2018-10-05T08:53:21.643Z,3.03
2018-10-05T08:55:52.099Z,2.80
2018-10-05T08:58:22.502Z,2.73
2018-10-05T09:00:52.908Z,2.60
2018-10-05T09:03:23.329Z,2.80
2018-10-05T09:05:53.789Z,2.67
2018-10-05T09:08:24.114Z,3.23
2018-10-05T09:10:54.367Z,3.10
2018-10-05T09:13:24.967Z,2.97
2018-10-05T09:15:55.421Z,2.50
2018-10-05T09:18:25.846Z,2.80
2018-10-05T09:20:56.257Z,2.80
2018-10-05T09:23:26.609Z,2.80
2018-10-05T09:25:57.148Z,3.30
2018-10-05T09:28:27.340Z,2.70
2018-10-05T09:30:57.840Z,3.00
2018-10-05T09:33:28.207Z,2.93
2018-10-05T09:35:58.695Z,2.93
2018-10-05T09:38:29.297Z,3.37
2018-10-05T09:40:59.757Z,2.93
2018-10-05T09:43:30.037Z,3.07
2018-10-05T09:46:00.591Z,3.50
2018-10-05T09:48:31.103Z,2.70
2018-10-05T09:51:01.583Z,3.03
2018-10-05T09:53:31.926Z,2.20
2018-10-05T09:56:02.420Z,3.07
2018-10-05T09:58:32.920Z,2.77
2018-10-05T10:01:09.520Z,2.23
2018-10-05T10:03:39.804Z,4.17
2018-10-05T10:06:10.307Z,2.33
2018-10-05T10:08:40.762Z,2.80
2018-10-05T10:11:11.342Z,2.50
2018-10-05T10:13:41.783Z,2.40
2018-10-05T10:16:12.469Z,2.13
2018-10-05T10:18:43.181Z,2.63
2018-10-05T10:21:13.712Z,2.50
2018-10-05T10:23:44.299Z,2.77
2018-10-05T10:26:14.664Z,2.70
2018-10-05T10:28:45.325Z,2.10
2018-10-05T10:31:15.667Z,1.90
2018-10-05T10:33:46.135Z,2.30
2018-10-05T10:36:16.595Z,2.67
2018-10-05T10:38:47.167Z,2.40
2018-10-05T10:41:17.434Z,2.13
2018-10-05T10:43:47.904Z,2.40
2018-10-05T10:46:18.512Z,2.60
2018-10-05T10:48:49.007Z,2.40
2018-10-05T10:51:19.509Z,2.37
2018-10-05T10:53:49.997Z,2.50
2018-10-05T10:56:20.487Z,2.00
2018-10-05T10:58:50.820Z,2.57
2018-10-05T11:01:22.332Z,2.60
2018-10-05T11:03:52.695Z,2.47
2018-10-05T11:06:23.070Z,1.93
2018-10-05T11:08:53.371Z,2.40
2018-10-05T11:11:23.958Z,2.57
2018-10-05T11:13:54.385Z,2.83
2018-10-05T11:16:24.930Z,2.20
2018-10-05T11:18:55.976Z,1.93
2018-10-05T11:21:26.260Z,2.13
2018-10-05T11:23:56.585Z,2.30
2018-10-05T11:26:27.055Z,2.23
2018-10-05T11:28:57.540Z,2.47
2018-10-05T11:31:28.015Z,2.10
2018-10-05T11:33:58.363Z,2.83
2018-10-05T11:36:28.861Z,2.93
2018-10-05T11:38:59.254Z,2.13
2018-10-05T11:41:29.637Z,2.63
2018-10-05T11:44:00.691Z,1.90
2018-10-05T11:46:31.426Z,2.30
2018-10-05T11:49:01.811Z,2.20
2018-10-05T11:51:32.164Z,2.00
2018-10-05T11:54:02.587Z,1.90
2018-10-05T11:56:32.988Z,2.00
2018-10-05T11:59:03.331Z,2.40
2018-10-05T12:01:33.691Z,2.23
2018-10-05T12:04:04.183Z,1.80
2018-10-05T12:06:35.124Z,2.27
2018-10-05T12:09:07.459Z,2.40
2018-10-05T12:11:38.337Z,1.83
2018-10-05T12:14:08.763Z,2.43
2018-10-05T12:16:39.335Z,2.80
2018-10-05T12:19:09.835Z,2.47
2018-10-05T12:21:40.207Z,1.70
2018-10-05T12:24:10.577Z,2.40
2018-10-05T12:26:41.127Z,2.60
2018-10-05T12:29:12.173Z,2.10
2018-10-05T12:31:42.526Z,2.00
2018-10-05T12:34:13.030Z,2.03
2018-10-05T12:36:43.420Z,1.83
2018-10-05T12:39:13.820Z,2.13
2018-10-05T12:41:44.140Z,2.40
2018-10-05T12:44:14.440Z,2.83
2018-10-05T12:46:45.037Z,1.83
2018-10-05T12:49:15.531Z,1.83
2018-10-05T12:51:46.115Z,2.20
2018-10-05T12:54:16.483Z,2.40
2018-10-05T12:56:46.807Z,2.10
2018-10-05T12:59:17.235Z,2.10
2018-10-05T13:01:47.748Z,2.50
2018-10-05T13:04:18.223Z,2.00
2018-10-05T13:06:48.809Z,1.63
2018-10-05T13:09:19.149Z,2.53
2018-10-05T13:11:49.581Z,2.30
2018-10-05T13:14:20.135Z,2.23
2018-10-05T13:16:50.580Z,2.40
2018-10-05T13:19:21.000Z,2.90
2018-10-05T13:21:51.372Z,2.50
2018-10-05T13:24:21.665Z,2.27
2018-10-05T13:26:52.100Z,2.57
2018-10-05T13:29:22.592Z,1.67
2018-10-05T13:31:53.098Z,2.30
2018-10-05T13:34:23.598Z,2.00
2018-10-05T13:36:53.863Z,1.60
2018-10-05T13:39:24.336Z,2.40
2018-10-05T13:41:54.748Z,2.43
2018-10-05T13:44:25.202Z,2.37
2018-10-05T13:46:55.575Z,1.77
2018-10-05T13:49:26.208Z,2.43
2018-10-05T13:51:56.634Z,1.70
2018-10-05T13:54:27.028Z,2.10
2018-10-05T13:56:57.343Z,2.23
2018-10-05T13:59:27.768Z,2.63
2018-10-05T14:01:58.511Z,2.00
2018-10-05T14:04:29.025Z,2.60
2018-10-05T14:06:59.501Z,1.70
2018-10-05T14:09:30.019Z,1.90
2018-10-05T14:12:01.388Z,2.40
2018-10-05T14:14:31.663Z,2.27
2018-10-05T14:17:02.064Z,2.30
2018-10-05T14:19:32.562Z,2.53
2018-10-05T14:22:03.037Z,1.80
2018-10-05T14:24:34.128Z,1.93
2018-10-05T14:27:05.207Z,2.53
2018-10-05T14:29:35.512Z,2.50
2018-10-05T14:32:05.984Z,2.10
2018-10-05T14:34:36.764Z,2.50
2018-10-05T14:37:07.319Z,2.60
2018-10-05T14:39:37.852Z,2.50
2018-10-05T14:42:08.234Z,2.60
2018-10-05T14:44:38.782Z,2.63
2018-10-05T14:47:09.285Z,2.93
2018-10-05T14:49:39.909Z,2.30
2018-10-05T14:52:10.460Z,2.17
2018-10-05T14:54:41.174Z,2.13
2018-10-05T14:57:11.708Z,2.60
2018-10-05T14:59:42.313Z,3.30
2018-10-05T15:02:12.543Z,2.70
2018-10-05T15:04:43.008Z,2.77
2018-10-05T15:07:13.719Z,2.50
2018-10-05T15:09:44.294Z,3.67
2018-10-05T15:12:14.879Z,3.07
2018-10-05T15:14:45.312Z,2.20
2018-10-05T15:17:15.699Z,2.30
2018-10-05T15:19:46.040Z,2.60
2018-10-05T15:22:16.413Z,2.83
2018-10-05T15:24:46.732Z,2.60
2018-10-05T15:27:17.299Z,3.13
2018-10-05T15:29:47.687Z,2.83
2018-10-05T15:32:18.039Z,2.43
2018-10-05T15:34:48.334Z,2.20
2018-10-05T15:37:19.035Z,2.80
2018-10-05T15:39:49.700Z,3.03
2018-10-05T15:42:20.091Z,2.77
2018-10-05T15:44:50.447Z,2.80
2018-10-05T15:47:20.892Z,3.43
2018-10-05T15:49:51.312Z,2.47
2018-10-05T15:52:21.738Z,2.90
2018-10-05T15:54:52.210Z,2.80
2018-10-05T15:57:22.771Z,2.70
2018-10-05T15:59:53.281Z,2.53
2018-10-05T16:02:23.783Z,2.30
2018-10-05T16:04:54.211Z,2.77
2018-10-05T16:07:24.680Z,2.80
2018-10-05T16:09:54.984Z,2.03
2018-10-05T16:12:25.875Z,2.63
2018-10-05T16:14:56.352Z,3.10
2018-10-05T16:17:26.891Z,2.70
2018-10-05T16:19:57.183Z,3.80
2018-10-05T16:22:27.777Z,2.40
2018-10-05T16:24:58.373Z,2.50
2018-10-05T16:27:28.747Z,2.17
2018-10-05T16:29:59.003Z,2.10
2018-10-05T16:32:29.503Z,2.33
2018-10-05T16:35:00.010Z,2.30
2018-10-05T16:37:30.578Z,2.20
2018-10-05T16:40:00.785Z,2.63
2018-10-05T16:42:31.244Z,2.53
2018-10-05T16:45:01.704Z,2.40
2018-10-05T16:47:32.564Z,2.50
2018-10-05T16:50:02.952Z,2.40
2018-10-05T16:52:35.396Z,2.27
2018-10-05T16:55:05.888Z,2.70
2018-10-05T16:57:36.384Z,2.90
2018-10-05T17:00:07.097Z,3.10
2018-10-05T17:02:37.566Z,2.87
2018-10-05T17:05:08.160Z,3.47
2018-10-05T17:07:38.381Z,3.13
2018-10-05T17:10:09.532Z,3.50
2018-10-05T17:12:39.771Z,3.50
2018-10-05T17:15:10.180Z,3.90
2018-10-05T17:17:40.702Z,3.70
2018-10-05T17:20:11.144Z,3.87
2018-10-05T17:22:41.403Z,3.97
2018-10-05T17:25:11.882Z,3.70
2018-10-05T17:27:42.281Z,4.10
2018-10-05T17:30:12.792Z,3.50
2018-10-05T17:32:43.353Z,3.33
2018-10-05T17:35:13.857Z,3.80
2018-10-05T17:37:44.529Z,3.10
2018-10-05T17:40:14.698Z,2.90
2018-10-05T17:42:45.199Z,3.23
2018-10-05T17:45:15.701Z,3.43
2018-10-05T17:47:46.378Z,2.80
2018-10-05T17:50:16.924Z,3.47
2018-10-05T17:52:47.429Z,3.50
2018-10-05T17:55:18.736Z,3.30
2018-10-05T17:57:49.183Z,3.20
2018-10-05T18:00:19.801Z,4.07
2018-10-05T18:02:50.306Z,3.17
2018-10-05T18:05:20.612Z,2.60
2018-10-05T18:07:51.103Z,3.80
2018-10-05T18:10:21.681Z,3.17
2018-10-05T18:12:52.163Z,3.60
2018-10-05T18:15:23.332Z,3.80
2018-10-05T18:17:53.817Z,3.50
2018-10-05T18:20:24.387Z,4.10
2018-10-05T18:22:54.673Z,4.20
2018-10-05T18:25:25.185Z,3.40
2018-10-05T18:27:55.652Z,3.67
2018-10-05T18:30:26.107Z,3.97
2018-10-05T18:32:56.884Z,3.73
2018-10-05T18:35:27.502Z,3.83
2018-10-05T18:37:58.010Z,4.10
2018-10-05T18:40:28.663Z,4.47
2018-10-05T18:42:59.254Z,6.50
2018-10-05T18:45:29.745Z,5.53
2018-10-05T18:48:00.261Z,6.23
2018-10-05T18:50:30.772Z,5.20
2018-10-05T18:53:01.357Z,4.37
2018-10-05T18:55:31.941Z,4.73
2018-10-05T18:58:02.367Z,4.87
2018-10-05T19:00:33.078Z,4.80
2018-10-05T19:03:03.740Z,4.70
2018-10-05T19:05:34.701Z,4.50
2018-10-05T19:08:05.187Z,4.63
2018-10-05T19:10:35.801Z,4.90
2018-10-05T19:13:06.487Z,4.23
2018-10-05T19:15:37.144Z,5.43
2018-10-05T19:18:07.648Z,4.43
2018-10-05T19:20:38.320Z,5.30
2018-10-05T19:23:08.916Z,4.80
2018-10-05T19:25:39.197Z,5.00
2018-10-05T19:28:09.543Z,5.00
2018-10-05T19:30:40.041Z,5.67
2018-10-05T19:33:10.628Z,5.77
2018-10-05T19:35:41.323Z,5.53
2018-10-05T19:38:11.818Z,6.27
2018-10-05T19:40:42.613Z,5.87
2018-10-05T19:43:13.129Z,6.30
2018-10-05T19:45:43.900Z,5.87
2018-10-05T19:48:14.598Z,6.50
2018-10-05T19:50:45.011Z,5.90
2018-10-05T19:53:15.534Z,6.80
2018-10-05T19:55:46.083Z,5.53
2018-10-05T19:58:16.672Z,6.63
2018-10-05T20:00:47.134Z,5.80
2018-10-05T20:03:17.635Z,6.83
2018-10-05T20:05:48.213Z,6.67
2018-10-05T20:08:18.732Z,6.30
2018-10-05T20:10:49.943Z,6.37
2018-10-05T20:13:20.499Z,6.50
2018-10-05T20:15:51.083Z,6.40
2018-10-05T20:18:21.405Z,5.70
2018-10-05T20:20:51.907Z,5.93
2018-10-05T20:23:22.450Z,6.50
2018-10-05T20:25:53.111Z,5.67
2018-10-05T20:28:23.676Z,6.47
2018-10-05T20:30:54.328Z,6.20
2018-10-05T20:33:26.917Z,6.37
2018-10-05T20:35:57.755Z,6.27
2018-10-05T20:38:28.168Z,6.50
2018-10-05T20:40:58.644Z,6.57
2018-10-05T20:43:29.234Z,5.60
2018-10-05T20:45:59.913Z,6.60
2018-10-05T20:48:30.403Z,6.40
2018-10-05T20:51:00.799Z,6.27
2018-10-05T20:53:31.768Z,6.53
2018-10-05T20:56:02.191Z,5.57
2018-10-05T20:58:32.538Z,5.43
2018-10-05T21:01:02.918Z,6.30
2018-10-05T21:03:33.403Z,7.00
2018-10-05T21:06:03.883Z,6.50
2018-10-05T21:08:34.268Z,6.00
2018-10-05T21:11:04.666Z,7.73
2018-10-05T21:13:35.110Z,6.97
2018-10-05T21:16:05.575Z,6.40
2018-10-05T21:18:36.089Z,5.93
2018-10-05T21:21:06.989Z,5.70
2018-10-05T21:23:37.464Z,5.73
2018-10-05T21:26:08.070Z,6.13
2018-10-05T21:28:38.530Z,6.63
2018-10-05T21:31:09.218Z,5.90
2018-10-05T21:33:39.692Z,9.70
2018-10-05T21:36:09.979Z,6.30
2018-10-05T21:38:41.591Z,6.37
2018-10-05T21:41:12.046Z,6.30
2018-10-05T21:43:42.525Z,6.40
2018-10-05T21:46:13.012Z,6.20
2018-10-05T21:48:43.572Z,6.40
2018-10-05T21:51:13.906Z,6.77
2018-10-05T21:53:44.267Z,7.17
2018-10-05T21:56:14.925Z,7.57
2018-10-05T21:58:45.331Z,7.33
2018-10-05T22:01:15.701Z,6.70
2018-10-05T22:03:46.948Z,6.73
2018-10-05T22:06:19.198Z,6.60
2018-10-05T22:08:49.707Z,6.60
2018-10-05T22:11:20.063Z,7.37
2018-10-05T22:13:50.363Z,6.70
2018-10-05T22:16:20.941Z,7.53
2018-10-05T22:18:51.447Z,6.20
2018-10-05T22:21:21.995Z,6.50
2018-10-05T22:23:52.314Z,7.73
2018-10-05T22:26:22.555Z,6.20
2018-10-05T22:28:52.953Z,6.87
2018-10-05T22:31:23.312Z,6.70
2018-10-05T22:33:53.693Z,7.67
2018-10-05T22:36:24.263Z,7.80
2018-10-05T22:38:54.769Z,7.70
2018-10-05T22:41:25.276Z,7.30
2018-10-05T22:43:55.517Z,7.07
2018-10-05T22:46:25.980Z,7.00
2018-10-05T22:48:56.369Z,7.60
2018-10-05T22:51:27.036Z,7.70
2018-10-05T22:53:57.359Z,6.23
2018-10-05T22:56:27.856Z,7.60
2018-10-05T22:58:58.204Z,7.17
2018-10-05T23:01:28.669Z,7.87
2018-10-05T23:03:59.061Z,6.70
2018-10-05T23:06:29.565Z,7.63
2018-10-05T23:08:59.900Z,7.90
2018-10-05T23:11:30.305Z,7.43
2018-10-05T23:14:00.681Z,7.53
2018-10-05T23:16:31.283Z,7.50
2018-10-05T23:19:01.761Z,7.10
2018-10-05T23:21:32.380Z,7.07
2018-10-05T23:24:02.872Z,7.93
2018-10-05T23:26:33.412Z,7.40
2018-10-05T23:29:03.772Z,8.27
2018-10-05T23:31:34.236Z,7.70
2018-10-05T23:34:04.753Z,8.30
2018-10-05T23:36:35.408Z,8.70
2018-10-05T23:39:08.216Z,9.17
2018-10-05T23:41:38.644Z,9.07
2018-10-05T23:44:09.532Z,8.07
2018-10-05T23:46:39.893Z,9.30
2018-10-05T23:49:10.382Z,8.27
2018-10-05T23:51:40.890Z,9.80
2018-10-05T23:54:11.159Z,7.70
2018-10-05T23:56:41.632Z,7.73
2018-10-05T23:59:11.909Z,8.40
